createdAt,value
2022-08-02T00:00:00.269Z,99665.72
2022-08-02T00:02:47.321Z,99664.88
2022-08-02T00:05:21.449Z,99669.50
2022-08-02T00:08:03.259Z,99668.94
2022-08-02T00:10:50.178Z,99665.38
2022-08-02T00:13:31.246Z,99671.03
2022-08-02T00:16:18.281Z,99667.50
2022-08-02T00:18:59.089Z,99659.06
2022-08-02T00:21:39.727Z,99653.59
2022-08-02T00:24:29.163Z,99657.66
2022-08-02T00:27:13.207Z,99657.09
2022-08-02T00:29:55.470Z,99656.03
2022-08-02T00:32:34.200Z,99666.69
2022-08-02T00:35:18.434Z,99671.63
2022-08-02T00:37:55.032Z,99680.91
2022-08-02T00:40:41.704Z,99679.97
2022-08-02T00:43:21.306Z,99683.91
2022-08-02T00:46:02.047Z,99681.47
2022-08-02T00:48:50.759Z,99675.22
2022-08-02T00:51:28.931Z,99681.50
2022-08-02T00:54:07.366Z,99674.38
2022-08-02T00:56:50.859Z,99678.16
2022-08-02T00:59:32.401Z,99675.97
2022-08-02T01:02:05.736Z,99681.63
2022-08-02T01:04:47.968Z,99681.88
2022-08-02T01:07:16.002Z,99679.94
2022-08-02T01:09:53.555Z,99678.22
2022-08-02T01:12:26.111Z,99679.38
2022-08-02T01:15:10.561Z,99672.81
2022-08-02T01:18:02.914Z,99678.84
2022-08-02T01:20:54.805Z,99674.41
2022-08-02T01:23:32.868Z,99680.09
2022-08-02T01:26:27.658Z,99680.63
2022-08-02T01:29:25.078Z,99687.69
2022-08-02T01:32:08.689Z,99691.47
2022-08-02T01:34:53.246Z,99688.97
2022-08-02T01:37:44.688Z,99696.59
2022-08-02T01:40:19.114Z,99694.94
2022-08-02T01:42:58.801Z,99695.78
2022-08-02T01:45:29.771Z,99697.13
2022-08-02T01:48:01.411Z,99697.00
2022-08-02T01:50:39.655Z,99697.59
2022-08-02T01:53:24.960Z,99695.63
2022-08-02T01:55:57.507Z,99693.19
2022-08-02T01:58:46.810Z,99693.13
2022-08-02T02:01:27.258Z,99694.19
2022-08-02T02:03:54.535Z,99695.28
2022-08-02T02:06:24.876Z,99694.97
2022-08-02T02:09:09.488Z,99696.81
2022-08-02T02:12:05.885Z,99685.41
2022-08-02T02:14:52.060Z,99683.50
2022-08-02T02:17:52.906Z,99678.19
2022-08-02T02:20:43.509Z,99683.34
2022-08-02T02:23:11.592Z,99681.69
2022-08-02T02:25:50.168Z,99695.94
2022-08-02T02:28:30.515Z,99692.06
2022-08-02T02:31:08.141Z,99701.16
2022-08-02T02:33:48.965Z,99712.66
2022-08-02T02:36:35.466Z,99717.56
2022-08-02T02:39:19.031Z,99726.44
2022-08-02T02:41:50.129Z,99733.22
2022-08-02T02:44:28.550Z,99726.78
2022-08-02T02:47:19.763Z,99725.16
2022-08-02T02:49:58.917Z,99725.16
2022-08-02T02:52:43.401Z,99735.75
2022-08-02T02:55:17.751Z,99726.47
2022-08-02T02:57:56.627Z,99737.63
2022-08-02T03:00:48.377Z,99734.91
2022-08-02T03:03:24.136Z,99731.56
2022-08-02T03:06:14.885Z,99728.84
2022-08-02T03:08:48.756Z,99729.78
2022-08-02T03:11:17.334Z,99733.56
2022-08-02T03:14:08.412Z,99735.97
2022-08-02T03:16:49.299Z,99739.78
2022-08-02T03:19:33.487Z,99745.56
2022-08-02T03:22:16.898Z,99741.19
2022-08-02T03:24:52.457Z,99738.72
2022-08-02T03:27:25.395Z,99730.78
2022-08-02T03:30:05.620Z,99732.66
2022-08-02T03:32:47.363Z,99732.56
2022-08-02T03:35:31.318Z,99730.84
2022-08-02T03:38:26.552Z,99726.94
2022-08-02T03:41:00.757Z,99729.16
2022-08-02T03:43:39.234Z,99730.03
2022-08-02T03:46:18.902Z,99730.84
2022-08-02T03:48:52.578Z,99736.81
2022-08-02T03:51:23.016Z,99734.72
2022-08-02T03:53:56.814Z,99737.34
2022-08-02T03:56:38.128Z,99740.44
2022-08-02T03:59:10.484Z,99735.28
2022-08-02T04:01:51.559Z,99742.47
2022-08-02T04:04:26.503Z,99743.31
2022-08-02T04:07:07.601Z,99750.59
2022-08-02T04:09:51.053Z,99755.88
2022-08-02T04:12:34.884Z,99759.22
2022-08-02T04:15:10.878Z,99758.38
2022-08-02T04:17:46.125Z,99756.13
2022-08-02T04:20:21.318Z,99753.19
2022-08-02T04:23:17.776Z,99756.03
2022-08-02T04:25:48.417Z,99757.72
2022-08-02T04:28:29.119Z,99768.38
2022-08-02T04:31:05.590Z,99763.22
2022-08-02T04:33:42.593Z,99760.25
2022-08-02T04:36:31.618Z,99771.22
2022-08-02T04:39:08.115Z,99770.72
2022-08-02T04:41:50.161Z,99767.25
2022-08-02T04:44:33.505Z,99774.38
2022-08-02T04:47:06.862Z,99774.16
2022-08-02T04:49:42.161Z,99767.41
2022-08-02T04:52:09.384Z,99758.72
2022-08-02T04:54:48.206Z,99763.75
2022-08-02T04:57:34.002Z,99766.56
2022-08-02T05:00:28.433Z,99767.13
2022-08-02T05:02:59.607Z,99763.34
2022-08-02T05:05:44.085Z,99766.38
2022-08-02T05:08:25.162Z,99773.19
2022-08-02T05:11:20.230Z,99758.88
2022-08-02T05:14:04.431Z,99763.75
2022-08-02T05:16:32.249Z,99765.22
2022-08-02T05:19:19.107Z,99774.91
2022-08-02T05:22:03.005Z,99770.41
2022-08-02T05:24:35.726Z,99770.22
2022-08-02T05:27:22.600Z,99770.97
2022-08-02T05:29:57.169Z,99767.47
2022-08-02T05:32:32.718Z,99776.19
2022-08-02T05:35:03.383Z,99778.75
2022-08-02T05:37:36.104Z,99782.72
2022-08-02T05:40:13.160Z,99793.09
2022-08-02T05:42:44.001Z,99795.81
2022-08-02T05:45:11.789Z,99806.41
2022-08-02T05:47:48.081Z,99809.34
2022-08-02T05:50:34.468Z,99812.38
2022-08-02T05:53:30.079Z,99815.59
2022-08-02T05:56:25.382Z,99816.66
2022-08-02T05:59:12.916Z,99822.56
2022-08-02T06:01:54.458Z,99820.59
2022-08-02T06:04:47.456Z,99831.97
2022-08-02T06:07:33.962Z,99831.09
2022-08-02T06:10:26.906Z,99831.31
2022-08-02T06:13:14.362Z,99831.50
2022-08-02T06:16:02.724Z,99835.47
2022-08-02T06:18:48.363Z,99845.03
2022-08-02T06:22:34.141Z,99835.56
2022-08-02T06:24:19.648Z,99833.69
2022-08-02T06:26:57.888Z,99842.09
2022-08-02T06:29:39.096Z,99840.16
2022-08-02T06:32:17.757Z,99846.09
2022-08-02T06:34:45.011Z,99843.84
2022-08-02T06:37:25.610Z,99852.97
2022-08-02T06:40:01.803Z,99848.41
2022-08-02T06:42:51.749Z,99851.97
2022-08-02T06:45:24.475Z,99857.84
2022-08-02T06:48:11.269Z,99861.75
2022-08-02T06:50:48.898Z,99861.72
2022-08-02T06:53:18.804Z,99862.53
2022-08-02T06:56:02.039Z,99855.84
2022-08-02T06:58:31.574Z,99851.19
2022-08-02T07:01:21.466Z,99858.34
2022-08-02T07:03:53.296Z,99857.34
2022-08-02T07:06:31.993Z,99856.47
2022-08-02T07:09:25.077Z,99855.75
2022-08-02T07:12:00.361Z,99850.28
2022-08-02T07:14:44.152Z,99843.25
2022-08-02T07:17:37.228Z,99841.38
2022-08-02T07:20:13.711Z,99845.66
2022-08-02T07:22:41.905Z,99841.75
2022-08-02T07:25:24.179Z,99833.00
2022-08-02T07:28:05.349Z,99834.88
2022-08-02T07:30:40.566Z,99833.06
2022-08-02T07:33:07.663Z,99836.03
2022-08-02T07:35:47.719Z,99841.19
2022-08-02T07:38:30.887Z,99837.13
2022-08-02T07:41:09.869Z,99831.75
2022-08-02T07:43:48.835Z,99839.69
2022-08-02T07:46:21.784Z,99832.56
2022-08-02T07:49:10.362Z,99833.13
2022-08-02T07:52:03.648Z,99827.28
2022-08-02T07:54:39.012Z,99835.25
2022-08-02T07:57:15.104Z,99830.84
2022-08-02T07:59:52.609Z,99832.22
2022-08-02T08:02:42.842Z,99834.53
2022-08-02T08:05:32.293Z,99832.72
2022-08-02T08:08:21.404Z,99822.97
2022-08-02T08:11:06.492Z,99820.00
2022-08-02T08:13:51.131Z,99822.72
2022-08-02T08:16:21.644Z,99829.97
2022-08-02T08:18:51.395Z,99831.84
2022-08-02T08:21:35.204Z,99831.09
2022-08-02T08:24:10.723Z,99832.78
2022-08-02T08:26:51.311Z,99836.97
2022-08-02T08:29:36.331Z,99837.78
2022-08-02T08:32:15.852Z,99832.84
2022-08-02T08:34:48.584Z,99835.53
2022-08-02T08:37:23.953Z,99834.28
2022-08-02T08:39:57.106Z,99834.25
2022-08-02T08:42:42.210Z,99839.38
2022-08-02T08:45:29.921Z,99844.16
2022-08-02T08:48:31.948Z,99848.66
2022-08-02T08:51:22.905Z,99840.44
2022-08-02T08:54:10.864Z,99850.31
2022-08-02T08:56:58.334Z,99845.59
2022-08-02T08:59:48.918Z,99840.94
2022-08-02T09:02:32.498Z,99841.19
2022-08-02T09:05:14.578Z,99846.84
2022-08-02T09:08:03.458Z,99845.59
2022-08-02T09:10:48.488Z,99841.75
2022-08-02T09:13:45.649Z,99842.63
2022-08-02T09:16:50.413Z,99848.78
2022-08-02T09:19:31.874Z,99845.56
2022-08-02T09:22:16.257Z,99848.78
2022-08-02T09:25:12.076Z,99842.50
2022-08-02T09:27:56.570Z,99844.03
2022-08-02T09:30:37.891Z,99848.56
2022-08-02T09:33:25.236Z,99842.66
2022-08-02T09:36:13.256Z,99842.13
2022-08-02T09:39:32.536Z,99844.47
2022-08-02T09:42:12.872Z,99840.41
2022-08-02T09:45:13.208Z,99836.94
2022-08-02T09:48:01.146Z,99835.72
2022-08-02T09:50:33.266Z,99834.13
2022-08-02T09:53:21.414Z,99836.50
2022-08-02T09:56:00.205Z,99822.06
2022-08-02T09:58:52.286Z,99821.41
2022-08-02T10:01:40.014Z,99823.28
2022-08-02T10:04:53.035Z,99830.22
2022-08-02T10:07:31.801Z,99820.19
2022-08-02T10:10:15.157Z,99819.84
2022-08-02T10:13:00.234Z,99817.69
2022-08-02T10:15:50.524Z,99818.25
2022-08-02T10:18:44.320Z,99816.03
2022-08-02T10:21:29.758Z,99805.13
2022-08-02T10:24:24.817Z,99802.03
2022-08-02T10:27:00.784Z,99796.41
2022-08-02T10:29:50.455Z,99795.41
2022-08-02T10:32:46.585Z,99793.28
2022-08-02T10:35:36.042Z,99788.78
2022-08-02T10:38:20.138Z,99791.50
2022-08-02T10:40:57.757Z,99784.47
2022-08-02T10:43:42.270Z,99789.97
2022-08-02T10:46:46.215Z,99789.97
2022-08-02T10:49:44.503Z,99787.16
2022-08-02T10:52:23.675Z,99783.22
2022-08-02T10:55:13.446Z,99782.63
2022-08-02T10:58:26.116Z,99780.28
2022-08-02T11:01:26.367Z,99779.09
2022-08-02T11:04:10.377Z,99781.00
2022-08-02T11:07:15.273Z,99785.03
2022-08-02T11:10:08.705Z,99776.03
2022-08-02T11:13:17.281Z,99780.78
2022-08-02T11:16:11.878Z,99773.84
2022-08-02T11:18:50.193Z,99762.66
2022-08-02T11:21:28.410Z,99771.09
2022-08-02T11:24:02.059Z,99764.16
2022-08-02T11:26:35.277Z,99767.66
2022-08-02T11:29:16.893Z,99768.09
2022-08-02T11:31:58.290Z,99760.66
2022-08-02T11:34:38.478Z,99766.00
2022-08-02T11:37:08.261Z,99758.16
2022-08-02T11:39:58.960Z,99760.53
2022-08-02T11:42:44.779Z,99761.00
2022-08-02T11:45:32.851Z,99759.53
2022-08-02T11:48:09.430Z,99752.44
2022-08-02T11:50:52.764Z,99752.34
2022-08-02T11:53:57.738Z,99747.09
2022-08-02T11:56:36.215Z,99752.13
2022-08-02T11:59:17.601Z,99752.59
2022-08-02T12:01:59.524Z,99758.50
2022-08-02T12:04:34.834Z,99752.31
2022-08-02T12:07:08.676Z,99748.41
2022-08-02T12:09:53.329Z,99746.81
2022-08-02T12:13:05.750Z,99747.50
2022-08-02T12:15:50.381Z,99746.22
2022-08-02T12:18:45.835Z,99745.22
2022-08-02T12:21:35.781Z,99740.88
2022-08-02T12:24:15.257Z,99736.56
2022-08-02T12:26:53.536Z,99731.16
2022-08-02T12:29:58.985Z,99736.59
2022-08-02T12:32:35.266Z,99740.34
2022-08-02T12:35:26.313Z,99733.66
2022-08-02T12:38:13.190Z,99737.47
2022-08-02T12:40:46.009Z,99730.50
2022-08-02T12:43:27.088Z,99730.44
2022-08-02T12:46:02.309Z,99725.81
2022-08-02T12:49:08.391Z,99732.84
2022-08-02T12:52:00.072Z,99727.22
2022-08-02T12:54:49.244Z,99732.50
2022-08-02T12:57:25.330Z,99729.34
2022-08-02T13:00:03.340Z,99722.88
2022-08-02T13:02:44.099Z,99730.25
2022-08-02T13:05:21.440Z,99729.66
2022-08-02T13:07:56.731Z,99733.03
2022-08-02T13:10:37.223Z,99735.38
2022-08-02T13:13:16.055Z,99728.31
2022-08-02T13:15:54.799Z,99725.75
2022-08-02T13:18:37.323Z,99729.06
2022-08-02T13:21:26.875Z,99708.31
2022-08-02T13:24:39.434Z,99709.44
2022-08-02T13:27:21.974Z,99710.84
2022-08-02T13:30:05.785Z,99725.66
2022-08-02T13:32:55.794Z,99709.81
2022-08-02T13:35:38.592Z,99718.22
2022-08-02T13:38:27.841Z,99712.00
2022-08-02T13:41:14.739Z,99710.88
2022-08-02T13:43:59.490Z,99708.22
2022-08-02T13:46:47.862Z,99706.97
2022-08-02T13:49:49.722Z,99702.84
2022-08-02T13:52:22.273Z,99708.72
2022-08-02T13:55:12.272Z,99703.53
2022-08-02T13:57:54.377Z,99704.31
2022-08-02T14:00:34.600Z,99704.16
2022-08-02T14:03:19.105Z,99705.00
2022-08-02T14:05:57.740Z,99690.44
2022-08-02T14:08:55.791Z,99691.13
2022-08-02T14:11:33.448Z,99690.88
2022-08-02T14:14:21.324Z,99689.13
2022-08-02T14:16:58.825Z,99685.75
2022-08-02T14:19:42.260Z,99686.47
2022-08-02T14:22:31.015Z,99688.09
2022-08-02T14:25:09.702Z,99692.44
2022-08-02T14:27:48.689Z,99684.75
2022-08-02T14:30:23.973Z,99688.84
2022-08-02T14:33:04.686Z,99687.34
2022-08-02T14:35:42.130Z,99688.00
2022-08-02T14:38:28.293Z,99686.22
2022-08-02T14:41:07.540Z,99689.22
2022-08-02T14:44:03.980Z,99690.41
2022-08-02T14:46:47.221Z,99681.03
2022-08-02T14:49:32.559Z,99686.16
2022-08-02T14:52:16.367Z,99689.56
2022-08-02T14:55:00.222Z,99694.28
2022-08-02T14:57:42.475Z,99687.53
2022-08-02T15:00:25.193Z,99694.13
2022-08-02T15:03:09.283Z,99694.78
2022-08-02T15:05:55.802Z,99689.00
2022-08-02T15:08:36.364Z,99699.13
2022-08-02T15:11:09.472Z,99695.50
2022-08-02T15:13:53.063Z,99685.53
2022-08-02T15:16:54.207Z,99693.25
2022-08-02T15:19:57.473Z,99685.59
2022-08-02T15:22:44.763Z,99688.63
2022-08-02T15:25:24.826Z,99688.19
2022-08-02T15:27:59.189Z,99692.34
2022-08-02T15:30:34.358Z,99688.31
2022-08-02T15:33:15.972Z,99688.44
2022-08-02T15:35:51.142Z,99684.00
2022-08-02T15:38:31.094Z,99677.47
2022-08-02T15:41:08.788Z,99680.47
2022-08-02T15:44:00.239Z,99684.97
2022-08-02T15:46:45.304Z,99685.38
2022-08-02T15:49:23.833Z,99686.28
2022-08-02T15:52:03.269Z,99675.41
2022-08-02T15:54:38.721Z,99667.56
2022-08-02T15:57:09.278Z,99681.19
2022-08-02T15:59:47.648Z,99681.19
2022-08-02T16:02:23.211Z,99678.19
2022-08-02T16:05:01.297Z,99686.72
2022-08-02T16:07:31.092Z,99684.16
2022-08-02T16:10:11.651Z,99691.09
2022-08-02T16:12:50.242Z,99692.44
2022-08-02T16:15:28.756Z,99695.53
2022-08-02T16:18:04.297Z,99689.38
2022-08-02T16:20:48.439Z,99686.94
2022-08-02T16:23:19.505Z,99688.81
2022-08-02T16:26:17.856Z,99689.69
2022-08-02T16:28:50.523Z,99687.41
2022-08-02T16:31:20.393Z,99689.41
2022-08-02T16:33:59.234Z,99696.25
2022-08-02T16:36:40.889Z,99701.88
2022-08-02T16:39:19.231Z,99704.31
2022-08-02T16:41:55.022Z,99700.19
2022-08-02T16:44:42.641Z,99692.81
2022-08-02T16:47:43.749Z,99698.34
2022-08-02T16:50:38.770Z,99706.09
2022-08-02T16:53:36.723Z,99707.44
2022-08-02T16:56:14.279Z,99712.91
2022-08-02T16:58:49.501Z,99708.63
2022-08-02T17:02:03.335Z,99710.47
2022-08-02T17:04:29.258Z,99713.84
2022-08-02T17:07:11.214Z,99711.88
2022-08-02T17:10:18.752Z,99711.00
2022-08-02T17:12:57.629Z,99713.31
2022-08-02T17:16:01.155Z,99716.97
2022-08-02T17:18:49.241Z,99716.66
2022-08-02T17:21:19.175Z,99715.50
2022-08-02T17:24:05.358Z,99721.25
2022-08-02T17:27:04.332Z,99719.50
2022-08-02T17:29:43.283Z,99721.00
2022-08-02T17:32:24.092Z,99723.84
2022-08-02T17:35:04.036Z,99729.91
2022-08-02T17:37:42.553Z,99735.00
2022-08-02T17:40:32.322Z,99743.91
2022-08-02T17:43:14.798Z,99732.22
2022-08-02T17:46:00.244Z,99725.91
2022-08-02T17:48:58.150Z,99729.84
2022-08-02T17:52:14.797Z,99734.47
2022-08-02T17:54:34.266Z,99736.53
2022-08-02T17:57:20.624Z,99743.34
2022-08-02T18:00:03.906Z,99743.25
2022-08-02T18:02:52.648Z,99746.38
2022-08-02T18:05:39.933Z,99747.59
2022-08-02T18:08:30.211Z,99759.72
2022-08-02T18:11:09.158Z,99755.38
2022-08-02T18:13:53.805Z,99757.09
2022-08-02T18:16:29.310Z,99766.91
2022-08-02T18:19:16.883Z,99770.84
2022-08-02T18:22:00.713Z,99777.75
2022-08-02T18:24:40.640Z,99777.47
2022-08-02T18:27:24.119Z,99780.38
2022-08-02T18:30:04.988Z,99786.88
2022-08-02T18:33:58.636Z,99786.34
2022-08-02T18:35:45.024Z,99792.13
2022-08-02T18:38:20.918Z,99792.38
2022-08-02T18:41:05.311Z,99802.41
2022-08-02T18:43:53.585Z,99794.97
2022-08-02T18:46:33.887Z,99798.94
2022-08-02T18:49:14.707Z,99798.03
2022-08-02T18:51:45.518Z,99794.78
2022-08-02T18:54:26.614Z,99804.91
2022-08-02T18:58:17.080Z,99798.50
2022-08-02T19:00:20.649Z,99800.59
2022-08-02T19:03:08.430Z,99802.38
2022-08-02T19:05:52.169Z,99809.72
2022-08-02T19:08:27.434Z,99810.06
2022-08-02T19:11:20.271Z,99799.84
2022-08-02T19:13:51.930Z,99808.31
2022-08-02T19:16:37.002Z,99810.97
2022-08-02T19:19:23.838Z,99807.66
2022-08-02T19:22:18.090Z,99815.91
2022-08-02T19:25:03.279Z,99822.41
2022-08-02T19:27:47.511Z,99816.94
2022-08-02T19:30:25.674Z,99817.91
2022-08-02T19:32:59.750Z,99819.59
2022-08-02T19:35:34.335Z,99817.75
2022-08-02T19:38:34.516Z,99822.00
2022-08-02T19:41:14.280Z,99828.00
2022-08-02T19:44:26.945Z,99834.72
2022-08-02T19:47:12.223Z,99838.00
2022-08-02T19:49:45.191Z,99839.91
2022-08-02T19:52:25.230Z,99830.25
2022-08-02T19:56:00.122Z,99842.59
2022-08-02T19:58:08.308Z,99836.50
2022-08-02T20:00:42.753Z,99836.88
2022-08-02T20:03:20.079Z,99836.94
2022-08-02T20:06:30.225Z,99841.72
2022-08-02T20:09:16.894Z,99838.88
2022-08-02T20:11:55.407Z,99835.00
2022-08-02T20:14:36.176Z,99841.97
2022-08-02T20:17:14.270Z,99836.00
2022-08-02T20:19:51.330Z,99839.16
2022-08-02T20:22:23.536Z,99837.28
2022-08-02T20:25:07.866Z,99834.09
2022-08-02T20:27:48.798Z,99834.78
2022-08-02T20:30:32.143Z,99834.16
2022-08-02T20:33:21.941Z,99836.75
2022-08-02T20:35:57.754Z,99842.06
2022-08-02T20:38:41.141Z,99840.00
2022-08-02T20:41:46.402Z,99841.69
2022-08-02T20:44:37.336Z,99838.16
2022-08-02T20:47:27.950Z,99848.94
2022-08-02T20:50:32.960Z,99849.53
2022-08-02T20:53:23.846Z,99842.94
2022-08-02T20:55:59.286Z,99846.28
2022-08-02T20:58:43.125Z,99844.34
2022-08-02T21:01:25.275Z,99842.47
2022-08-02T21:04:24.909Z,99849.38
2022-08-02T21:07:17.955Z,99847.53
2022-08-02T21:09:59.993Z,99844.50
2022-08-02T21:12:45.367Z,99839.81
2022-08-02T21:15:36.200Z,99835.47
2022-08-02T21:18:33.183Z,99845.34
2022-08-02T21:21:18.958Z,99846.44
2022-08-02T21:24:04.129Z,99841.53
2022-08-02T21:26:52.703Z,99843.75
2022-08-02T21:29:33.917Z,99843.47
2022-08-02T21:32:17.163Z,99848.72
2022-08-02T21:34:57.057Z,99852.59
2022-08-02T21:37:44.792Z,99845.19
2022-08-02T21:40:21.400Z,99842.16
2022-08-02T21:43:06.326Z,99840.53
2022-08-02T21:45:53.865Z,99835.91
2022-08-02T21:48:41.756Z,99840.00
2022-08-02T21:51:19.787Z,99847.16
2022-08-02T21:54:17.407Z,99848.78
2022-08-02T21:57:04.720Z,99849.34
2022-08-02T21:59:45.347Z,99841.69
2022-08-02T22:02:31.076Z,99851.00
2022-08-02T22:08:20.304Z,99850.47
2022-08-02T22:11:17.235Z,99854.31
2022-08-02T22:13:58.294Z,99854.00
2022-08-02T22:16:39.163Z,99860.59
2022-08-02T22:19:15.338Z,99856.75
2022-08-02T22:21:55.573Z,99857.59
2022-08-02T22:24:41.360Z,99866.63
2022-08-02T22:27:20.297Z,99864.69
2022-08-02T22:29:53.147Z,99868.56
2022-08-02T22:32:46.805Z,99866.31
2022-08-02T22:35:28.373Z,99875.06
2022-08-02T22:38:14.979Z,99863.53
2022-08-02T22:41:00.662Z,99865.47
2022-08-02T22:43:57.479Z,99867.66
2022-08-02T22:46:40.746Z,99867.41
2022-08-02T22:49:36.947Z,99873.47
2022-08-02T22:52:22.143Z,99879.78
2022-08-02T22:55:06.577Z,99868.00
2022-08-02T22:57:56.423Z,99866.34
2022-08-02T22:59:04.041Z,99852.94
2022-08-02T23:00:43.670Z,99864.16
2022-08-02T23:03:20.101Z,99872.38
2022-08-02T23:05:58.033Z,99873.75
2022-08-02T23:08:51.439Z,99870.19
2022-08-02T23:11:26.532Z,99875.38
2022-08-02T23:13:55.653Z,99878.09
2022-08-02T23:16:48.698Z,99881.34
2022-08-02T23:19:34.555Z,99878.31
2022-08-02T23:22:03.995Z,99881.28
2022-08-02T23:24:39.106Z,99885.69
2022-08-02T23:27:30.404Z,99881.81
2022-08-02T23:30:12.030Z,99874.97
2022-08-02T23:32:52.038Z,99883.72
2022-08-02T23:35:38.189Z,99877.13
2022-08-02T23:38:16.081Z,99872.19
2022-08-02T23:40:51.611Z,99875.75
2022-08-02T23:43:57.280Z,99870.81
2022-08-02T23:46:44.604Z,99879.25
2022-08-02T23:49:29.421Z,99873.53
2022-08-02T23:52:04.191Z,99875.44
2022-08-02T23:54:37.581Z,99865.56
2022-08-02T23:57:20.510Z,99869.66
